BCS93D GMTT-LFPG
Flight info
| Callsign | BCS93D |
|---|---|
| Flight time | 2h 4m |
| Altitude | 36000 |
| Route | NOLRO DCT ADKIM Z53 VJF N10 HIJ DCT RUSEM DCT SOTUK DCT USOKO DCT TLD DCT SIE DCT EDIGO DCT DGO L176 LUSEM DCT LULUT DCT POI DCT PEPAX UT182 KEPER |
| Aircraft | A306/H-SDE3FGHIRWY/LB1 |
Departure
| Time | 2026-05-08 21:58 |
|---|---|
| Airport | Tangier Ibn Battuta Airport (GMTT) |
Arrival
| Time | 2026-05-09 00:02 |
|---|---|
| Airport | Charles de Gaulle International Airport (LFPG) |
| Time | Latitude | Longitude | Altitude | Speed | Heading |
|---|---|---|---|---|---|
| 2026-05-08 21:39 | 35.72605 | -5.91612 | 66 ft | 0 kts | 85° |
| 2026-05-08 21:44 | 35.72605 | -5.91613 | 66 ft | 0 kts | 85° |
| 2026-05-08 21:50 | 35.72605 | -5.91614 | 66 ft | 1 kts | 85° |
| 2026-05-08 21:50 | 35.72603 | -5.91644 | 60 ft | 4 kts | 85° |
| 2026-05-08 21:50 | 35.72600 | -5.91671 | 56 ft | 4 kts | 66° |
| 2026-05-08 21:50 | 35.72587 | -5.91691 | 56 ft | 4 kts | 10° |
| 2026-05-08 21:51 | 35.72563 | -5.91692 | 59 ft | 2 kts | 356° |
| 2026-05-08 21:51 | 35.72557 | -5.91691 | 60 ft | 0 kts | 356° |
| 2026-05-08 21:53 | 35.72560 | -5.91692 | 66 ft | 3 kts | 353° |
| 2026-05-08 21:53 | 35.72604 | -5.91681 | 61 ft | 7 kts | 3° |
| 2026-05-08 21:53 | 35.72633 | -5.91691 | 61 ft | 2 kts | 339° |
| 2026-05-08 21:54 | 35.72672 | -5.91690 | 66 ft | 10 kts | 357° |
| 2026-05-08 21:54 | 35.72760 | -5.91709 | 66 ft | 17 kts | 351° |
| 2026-05-08 21:54 | 35.72898 | -5.91733 | 64 ft | 21 kts | 340° |
| 2026-05-08 21:54 | 35.72960 | -5.91877 | 57 ft | 22 kts | 279° |
| 2026-05-08 21:55 | 35.72980 | -5.92097 | 61 ft | 26 kts | 274° |
| 2026-05-08 21:55 | 35.72998 | -5.92307 | 59 ft | 23 kts | 278° |
| 2026-05-08 21:55 | 35.73018 | -5.92495 | 66 ft | 21 kts | 277° |
| 2026-05-08 21:56 | 35.73062 | -5.92946 | 60 ft | 34 kts | 276° |
| 2026-05-08 21:56 | 35.73087 | -5.93249 | 59 ft | 38 kts | 276° |
| 2026-05-08 21:56 | 35.73117 | -5.93590 | 58 ft | 42 kts | 277° |
| 2026-05-08 21:56 | 35.73155 | -5.93958 | 66 ft | 38 kts | 285° |
| 2026-05-08 21:57 | 35.73287 | -5.94063 | 62 ft | 10 kts | 19° |
| 2026-05-08 21:57 | 35.73331 | -5.93986 | 61 ft | 15 kts | 80° |
| 2026-05-08 21:57 | 35.73301 | -5.93592 | 60 ft | 84 kts | 96° |
| 2026-05-08 21:57 | 35.73210 | -5.92578 | 61 ft | 154 kts | 96° |
| 2026-05-08 21:58 | 35.73051 | -5.91042 | 393 ft | 200 kts | 99° |
| 2026-05-08 21:58 | 35.72840 | -5.89347 | 1683 ft | 202 kts | 99° |
| 2026-05-08 21:58 | 35.72694 | -5.87579 | 2543 ft | 218 kts | 97° |
| 2026-05-08 21:58 | 35.72483 | -5.85641 | 3025 ft | 238 kts | 100° |
| 2026-05-08 21:59 | 35.72232 | -5.83572 | 3619 ft | 250 kts | 100° |
| 2026-05-08 21:59 | 35.72075 | -5.81349 | 4075 ft | 273 kts | 91° |
| 2026-05-08 21:59 | 35.72434 | -5.79000 | 4626 ft | 289 kts | 66° |
| 2026-05-08 21:59 | 35.73619 | -5.77004 | 5502 ft | 295 kts | 43° |
| 2026-05-08 22:00 | 35.75320 | -5.75544 | 6097 ft | 310 kts | 30° |
| 2026-05-08 22:00 | 35.77244 | -5.74149 | 6764 ft | 321 kts | 33° |
| 2026-05-08 22:00 | 35.79112 | -5.72497 | 7104 ft | 343 kts | 39° |
| 2026-05-08 22:00 | 35.80942 | -5.70614 | 7900 ft | 342 kts | 40° |
| 2026-05-08 22:01 | 35.82833 | -5.68829 | 9036 ft | 339 kts | 32° |
| 2026-05-08 22:01 | 35.85020 | -5.67646 | 9392 ft | 356 kts | 16° |
| 2026-05-08 22:01 | 35.87319 | -5.66696 | 10613 ft | 339 kts | 17° |
| 2026-05-08 22:01 | 35.89569 | -5.65839 | 11400 ft | 345 kts | 13° |
| 2026-05-08 22:02 | 35.91975 | -5.65176 | 11640 ft | 364 kts | 8° |
| 2026-05-08 22:02 | 35.94537 | -5.64673 | 11935 ft | 381 kts | 5° |
| 2026-05-08 22:02 | 35.97236 | -5.64215 | 12219 ft | 398 kts | 5° |
| 2026-05-08 22:02 | 36.00015 | -5.63742 | 12498 ft | 414 kts | 5° |
| 2026-05-08 22:03 | 36.02912 | -5.63235 | 12973 ft | 423 kts | 6° |
| 2026-05-08 22:03 | 36.05842 | -5.62681 | 13518 ft | 429 kts | 6° |
| 2026-05-08 22:03 | 36.08828 | -5.62076 | 13994 ft | 437 kts | 7° |
| 2026-05-08 22:03 | 36.11845 | -5.61438 | 14559 ft | 441 kts | 7° |
| 2026-05-08 22:04 | 36.14842 | -5.60792 | 15145 ft | 444 kts | 7° |
| 2026-05-08 22:04 | 36.17907 | -5.60135 | 15691 ft | 449 kts | 7° |
| 2026-05-08 22:04 | 36.20995 | -5.59481 | 16268 ft | 453 kts | 7° |
| 2026-05-08 22:04 | 36.24131 | -5.58824 | 16870 ft | 456 kts | 7° |
| 2026-05-08 22:05 | 36.27276 | -5.58173 | 17475 ft | 459 kts | 7° |
| 2026-05-08 22:05 | 36.30448 | -5.57519 | 17992 ft | 464 kts | 7° |
| 2026-05-08 22:05 | 36.33643 | -5.56849 | 18509 ft | 468 kts | 7° |
| 2026-05-08 22:05 | 36.36872 | -5.56166 | 18991 ft | 471 kts | 7° |
| 2026-05-08 22:06 | 36.40110 | -5.55482 | 19491 ft | 473 kts | 7° |
| 2026-05-08 22:06 | 36.43368 | -5.54795 | 19944 ft | 476 kts | 7° |
| 2026-05-08 22:06 | 36.46651 | -5.54105 | 20362 ft | 480 kts | 7° |
| 2026-05-08 22:06 | 36.48838 | -5.53645 | 20652 ft | 482 kts | 7° |
| 2026-05-08 22:07 | 36.53226 | -5.52721 | 21232 ft | 485 kts | 7° |
| 2026-05-08 22:07 | 36.56576 | -5.52015 | 21694 ft | 488 kts | 7° |
| 2026-05-08 22:07 | 36.59941 | -5.51303 | 22145 ft | 491 kts | 7° |
| 2026-05-08 22:07 | 36.63312 | -5.50591 | 22554 ft | 494 kts | 7° |
| 2026-05-08 22:08 | 36.65567 | -5.50114 | 22817 ft | 496 kts | 7° |
| 2026-05-08 22:08 | 36.68983 | -5.49393 | 23249 ft | 498 kts | 7° |
| 2026-05-08 22:08 | 36.73539 | -5.48426 | 23695 ft | 503 kts | 7° |
| 2026-05-08 22:08 | 36.75880 | -5.47931 | 23917 ft | 505 kts | 7° |
| 2026-05-08 22:09 | 36.79353 | -5.47197 | 24177 ft | 509 kts | 7° |
| 2026-05-08 22:09 | 36.82852 | -5.46455 | 24526 ft | 511 kts | 6° |
| 2026-05-08 22:09 | 36.86322 | -5.45719 | 24778 ft | 515 kts | 6° |
| 2026-05-08 22:09 | 36.89873 | -5.44965 | 25085 ft | 517 kts | 6° |
| 2026-05-08 22:10 | 36.93445 | -5.44206 | 25370 ft | 520 kts | 6° |
| 2026-05-08 22:10 | 36.97005 | -5.43449 | 25662 ft | 523 kts | 6° |
| 2026-05-08 22:10 | 37.00622 | -5.42676 | 25920 ft | 526 kts | 6° |
| 2026-05-08 22:10 | 37.04240 | -5.41904 | 26191 ft | 529 kts | 6° |
| 2026-05-08 22:11 | 37.07876 | -5.41128 | 26458 ft | 531 kts | 6° |
| 2026-05-08 22:11 | 37.11533 | -5.40346 | 26735 ft | 533 kts | 6° |
| 2026-05-08 22:11 | 37.15163 | -5.39570 | 26980 ft | 536 kts | 5° |
| 2026-05-08 22:11 | 37.18833 | -5.38784 | 27228 ft | 538 kts | 5° |
| 2026-05-08 22:12 | 37.22549 | -5.37987 | 27471 ft | 541 kts | 5° |
| 2026-05-08 22:12 | 37.26254 | -5.37192 | 27724 ft | 543 kts | 5° |
| 2026-05-08 22:12 | 37.30018 | -5.36383 | 27960 ft | 545 kts | 5° |
| 2026-05-08 22:12 | 37.33711 | -5.35588 | 28287 ft | 545 kts | 5° |
| 2026-05-08 22:13 | 37.37457 | -5.34781 | 28620 ft | 545 kts | 5° |
| 2026-05-08 22:13 | 37.41200 | -5.33973 | 28991 ft | 545 kts | 5° |
| 2026-05-08 22:13 | 37.44942 | -5.33164 | 29315 ft | 545 kts | 5° |
| 2026-05-08 22:13 | 37.48685 | -5.32355 | 29640 ft | 545 kts | 5° |
| 2026-05-08 22:14 | 37.52391 | -5.31554 | 29959 ft | 546 kts | 5° |
| 2026-05-08 22:14 | 37.56136 | -5.30743 | 30282 ft | 545 kts | 5° |
| 2026-05-08 22:14 | 37.59877 | -5.29932 | 30550 ft | 545 kts | 5° |
| 2026-05-08 22:14 | 37.63626 | -5.29119 | 30832 ft | 544 kts | 5° |
| 2026-05-08 22:15 | 37.67338 | -5.28313 | 31143 ft | 543 kts | 5° |
| 2026-05-08 22:15 | 37.71073 | -5.27501 | 31456 ft | 543 kts | 5° |
| 2026-05-08 22:15 | 37.74751 | -5.26700 | 31740 ft | 542 kts | 5° |
| 2026-05-08 22:15 | 37.78488 | -5.25887 | 32015 ft | 542 kts | 4° |
| 2026-05-08 22:16 | 37.82219 | -5.25074 | 32303 ft | 542 kts | 4° |
| 2026-05-08 22:16 | 37.85939 | -5.24263 | 32619 ft | 541 kts | 4° |
| 2026-05-08 22:16 | 37.89655 | -5.23450 | 32903 ft | 541 kts | 4° |
| 2026-05-08 22:16 | 37.93366 | -5.22639 | 33204 ft | 541 kts | 4° |
| 2026-05-08 22:17 | 37.97021 | -5.21840 | 33479 ft | 541 kts | 4° |
| 2026-05-08 22:17 | 38.00723 | -5.21030 | 33792 ft | 540 kts | 4° |
| 2026-05-08 22:17 | 38.04435 | -5.20216 | 34053 ft | 539 kts | 4° |
| 2026-05-08 22:17 | 38.08135 | -5.19404 | 34291 ft | 539 kts | 4° |
| 2026-05-08 22:18 | 38.11824 | -5.18593 | 34527 ft | 538 kts | 4° |
| 2026-05-08 22:18 | 38.15520 | -5.17780 | 34822 ft | 536 kts | 4° |
| 2026-05-08 22:18 | 38.19156 | -5.16979 | 35064 ft | 535 kts | 4° |
| 2026-05-08 22:18 | 38.22830 | -5.16168 | 35275 ft | 535 kts | 4° |
| 2026-05-08 22:19 | 38.26494 | -5.15358 | 35499 ft | 534 kts | 4° |
| 2026-05-08 22:19 | 38.30159 | -5.14548 | 35745 ft | 533 kts | 4° |
| 2026-05-08 22:19 | 38.33809 | -5.13741 | 35892 ft | 533 kts | 4° |
| 2026-05-08 22:20 | 38.41104 | -5.12129 | 35910 ft | 533 kts | 4° |
| 2026-05-08 22:20 | 38.48417 | -5.10497 | 35910 ft | 533 kts | 6° |
| 2026-05-08 22:21 | 38.55550 | -5.07568 | 35905 ft | 540 kts | 17° |
| 2026-05-08 22:21 | 38.62527 | -5.04076 | 35908 ft | 540 kts | 18° |
| 2026-05-08 22:22 | 38.69482 | -5.00471 | 35902 ft | 540 kts | 18° |
| 2026-05-08 22:22 | 38.76442 | -4.96864 | 35904 ft | 538 kts | 18° |
| 2026-05-08 22:23 | 38.83397 | -4.93276 | 35906 ft | 538 kts | 18° |
| 2026-05-08 22:23 | 38.90345 | -4.89694 | 35901 ft | 537 kts | 18° |
| 2026-05-08 22:24 | 38.97247 | -4.86127 | 35901 ft | 536 kts | 18° |
| 2026-05-08 22:24 | 39.04157 | -4.82550 | 35906 ft | 535 kts | 18° |
| 2026-05-08 22:25 | 39.11061 | -4.78969 | 35903 ft | 534 kts | 18° |
| 2026-05-08 22:25 | 39.17962 | -4.75380 | 35906 ft | 533 kts | 18° |
| 2026-05-08 22:26 | 39.24844 | -4.71794 | 35907 ft | 533 kts | 18° |
| 2026-05-08 22:26 | 39.31679 | -4.68227 | 35910 ft | 531 kts | 18° |
| 2026-05-08 22:27 | 39.38535 | -4.64641 | 35907 ft | 531 kts | 18° |
| 2026-05-08 22:27 | 39.45389 | -4.61046 | 35911 ft | 530 kts | 18° |
| 2026-05-08 22:28 | 39.52173 | -4.57482 | 35916 ft | 530 kts | 18° |
| 2026-05-08 22:28 | 39.58998 | -4.53889 | 35911 ft | 528 kts | 17° |
| 2026-05-08 22:29 | 39.65811 | -4.50294 | 35911 ft | 528 kts | 18° |
| 2026-05-08 22:29 | 39.72606 | -4.46701 | 35914 ft | 527 kts | 17° |
| 2026-05-08 22:30 | 39.79409 | -4.43096 | 35914 ft | 527 kts | 17° |
| 2026-05-08 22:30 | 39.86154 | -4.39510 | 35917 ft | 526 kts | 18° |
| 2026-05-08 22:31 | 39.92927 | -4.35897 | 35907 ft | 525 kts | 17° |
| 2026-05-08 22:31 | 39.99667 | -4.32195 | 35909 ft | 525 kts | 20° |
| 2026-05-08 22:32 | 40.06302 | -4.28164 | 35911 ft | 525 kts | 21° |
| 2026-05-08 22:32 | 40.12322 | -4.24424 | 35913 ft | 524 kts | 21° |
| 2026-05-08 22:33 | 40.18884 | -4.20373 | 35914 ft | 523 kts | 20° |
| 2026-05-08 22:33 | 40.25467 | -4.16330 | 35915 ft | 522 kts | 20° |
| 2026-05-08 22:34 | 40.32000 | -4.12321 | 35917 ft | 521 kts | 20° |
| 2026-05-08 22:34 | 40.38549 | -4.08292 | 35933 ft | 520 kts | 20° |
| 2026-05-08 22:35 | 40.45085 | -4.04261 | 35939 ft | 519 kts | 20° |
| 2026-05-08 22:35 | 40.51619 | -4.00223 | 35943 ft | 518 kts | 20° |
| 2026-05-08 22:36 | 40.58147 | -3.96178 | 35941 ft | 518 kts | 20° |
| 2026-05-08 22:36 | 40.64619 | -3.92160 | 35945 ft | 516 kts | 20° |
| 2026-05-08 22:37 | 40.71121 | -3.88116 | 35947 ft | 516 kts | 20° |
| 2026-05-08 22:37 | 40.77611 | -3.84069 | 35950 ft | 514 kts | 20° |
| 2026-05-08 22:38 | 40.84049 | -3.80047 | 35962 ft | 514 kts | 20° |
| 2026-05-08 22:38 | 40.90516 | -3.75999 | 35958 ft | 512 kts | 20° |
| 2026-05-08 22:39 | 40.96945 | -3.71963 | 35957 ft | 511 kts | 20° |
| 2026-05-08 22:39 | 41.03350 | -3.67932 | 35963 ft | 508 kts | 20° |
| 2026-05-08 22:40 | 41.09699 | -3.63929 | 35966 ft | 506 kts | 20° |
| 2026-05-08 22:40 | 41.16051 | -3.59951 | 35968 ft | 504 kts | 18° |
| 2026-05-08 22:41 | 41.22494 | -3.56345 | 35968 ft | 500 kts | 16° |
| 2026-05-08 22:41 | 41.28949 | -3.52899 | 35965 ft | 499 kts | 15° |
| 2026-05-08 22:42 | 41.35380 | -3.49436 | 35966 ft | 498 kts | 16° |
| 2026-05-08 22:42 | 41.41770 | -3.45948 | 35965 ft | 496 kts | 16° |
| 2026-05-08 22:43 | 41.48151 | -3.42441 | 35958 ft | 495 kts | 16° |
| 2026-05-08 22:43 | 41.54479 | -3.38954 | 35964 ft | 493 kts | 16° |
| 2026-05-08 22:44 | 41.60818 | -3.35454 | 35969 ft | 491 kts | 16° |
| 2026-05-08 22:44 | 41.67129 | -3.31962 | 35967 ft | 490 kts | 16° |
| 2026-05-08 22:45 | 41.73428 | -3.28471 | 35971 ft | 489 kts | 16° |
| 2026-05-08 22:45 | 41.79713 | -3.24979 | 35972 ft | 488 kts | 16° |
| 2026-05-08 22:46 | 41.85938 | -3.21515 | 35978 ft | 487 kts | 16° |
| 2026-05-08 22:46 | 41.92183 | -3.18030 | 35979 ft | 485 kts | 17° |
| 2026-05-08 22:47 | 41.98410 | -3.14549 | 35980 ft | 484 kts | 17° |
| 2026-05-08 22:47 | 42.04578 | -3.11092 | 35982 ft | 482 kts | 17° |
| 2026-05-08 22:48 | 42.10768 | -3.07616 | 35967 ft | 480 kts | 17° |
| 2026-05-08 22:48 | 42.16939 | -3.04144 | 35978 ft | 479 kts | 17° |
| 2026-05-08 22:49 | 42.23088 | -3.00678 | 35973 ft | 478 kts | 17° |
| 2026-05-08 22:49 | 42.32239 | -2.95507 | 35975 ft | 476 kts | 17° |
| 2026-05-08 22:50 | 42.38346 | -2.92043 | 35974 ft | 475 kts | 17° |
| 2026-05-08 22:50 | 42.44368 | -2.88347 | 35971 ft | 480 kts | 25° |
| 2026-05-08 22:51 | 42.49704 | -2.82888 | 35975 ft | 486 kts | 35° |
| 2026-05-08 22:51 | 42.54804 | -2.76826 | 35975 ft | 487 kts | 37° |
| 2026-05-08 22:52 | 42.59837 | -2.70672 | 35971 ft | 486 kts | 37° |
| 2026-05-08 22:52 | 42.64839 | -2.64569 | 35970 ft | 485 kts | 37° |
| 2026-05-08 22:53 | 42.69882 | -2.58443 | 35970 ft | 484 kts | 37° |
| 2026-05-08 22:53 | 42.74901 | -2.52346 | 35972 ft | 484 kts | 37° |
| 2026-05-08 22:54 | 42.79895 | -2.46267 | 35971 ft | 483 kts | 37° |
| 2026-05-08 22:54 | 42.84911 | -2.40148 | 35970 ft | 482 kts | 37° |
| 2026-05-08 22:55 | 42.89901 | -2.34044 | 35970 ft | 481 kts | 37° |
| 2026-05-08 22:55 | 42.94881 | -2.27936 | 35969 ft | 480 kts | 37° |
| 2026-05-08 22:56 | 42.99017 | -2.22852 | 35978 ft | 480 kts | 37° |
| 2026-05-08 22:56 | 43.04771 | -2.15760 | 35966 ft | 479 kts | 37° |
| 2026-05-08 22:57 | 43.09709 | -2.09655 | 35966 ft | 478 kts | 37° |
| 2026-05-08 22:57 | 43.13843 | -2.04536 | 35962 ft | 477 kts | 37° |
| 2026-05-08 22:58 | 43.18734 | -1.98473 | 35954 ft | 477 kts | 37° |
| 2026-05-08 22:58 | 43.23646 | -1.92367 | 35946 ft | 477 kts | 38° |
| 2026-05-08 22:59 | 43.28565 | -1.86241 | 35938 ft | 476 kts | 38° |
| 2026-05-08 22:59 | 43.33871 | -1.80959 | 35942 ft | 468 kts | 27° |
| 2026-05-08 23:00 | 43.39414 | -1.76352 | 35942 ft | 469 kts | 27° |
| 2026-05-08 23:00 | 43.44903 | -1.71463 | 35941 ft | 469 kts | 29° |
| 2026-05-08 23:01 | 43.50340 | -1.66498 | 35972 ft | 469 kts | 29° |
| 2026-05-08 23:01 | 43.55795 | -1.61523 | 35969 ft | 469 kts | 29° |
| 2026-05-08 23:02 | 43.61203 | -1.56607 | 35957 ft | 468 kts | 29° |
| 2026-05-08 23:02 | 43.66627 | -1.51675 | 35952 ft | 468 kts | 29° |
| 2026-05-08 23:03 | 43.72084 | -1.46703 | 35956 ft | 468 kts | 29° |
| 2026-05-08 23:03 | 43.77519 | -1.41738 | 35963 ft | 467 kts | 29° |
| 2026-05-08 23:04 | 43.82918 | -1.36796 | 35956 ft | 468 kts | 29° |
| 2026-05-08 23:04 | 43.88345 | -1.31816 | 35962 ft | 467 kts | 30° |
| 2026-05-08 23:05 | 43.93765 | -1.26831 | 35956 ft | 467 kts | 30° |
| 2026-05-08 23:05 | 43.99186 | -1.21835 | 35958 ft | 467 kts | 30° |
| 2026-05-08 23:06 | 44.04572 | -1.16861 | 35962 ft | 468 kts | 30° |
| 2026-05-08 23:06 | 44.10012 | -1.11825 | 35966 ft | 468 kts | 30° |
| 2026-05-08 23:07 | 44.15414 | -1.06813 | 35964 ft | 469 kts | 30° |
| 2026-05-08 23:07 | 44.20854 | -1.01754 | 35964 ft | 470 kts | 30° |
| 2026-05-08 23:08 | 44.26300 | -0.96678 | 35967 ft | 471 kts | 31° |
| 2026-05-08 23:08 | 44.31758 | -0.91579 | 35971 ft | 472 kts | 31° |
| 2026-05-08 23:09 | 44.37225 | -0.86462 | 35970 ft | 473 kts | 30° |
| 2026-05-08 23:09 | 44.43052 | -0.82442 | 35975 ft | 468 kts | 18° |
| 2026-05-08 23:10 | 44.49153 | -0.79243 | 35969 ft | 468 kts | 17° |
| 2026-05-08 23:10 | 44.55308 | -0.76182 | 35970 ft | 469 kts | 16° |
| 2026-05-08 23:11 | 44.61464 | -0.73118 | 35969 ft | 470 kts | 17° |
| 2026-05-08 23:11 | 44.67590 | -0.70039 | 35968 ft | 470 kts | 17° |
| 2026-05-08 23:12 | 44.73755 | -0.66919 | 35967 ft | 471 kts | 17° |
| 2026-05-08 23:12 | 44.79937 | -0.63781 | 35966 ft | 472 kts | 17° |
| 2026-05-08 23:13 | 44.86133 | -0.60630 | 35964 ft | 472 kts | 17° |
| 2026-05-08 23:13 | 44.92265 | -0.57506 | 35967 ft | 472 kts | 17° |
| 2026-05-08 23:14 | 44.98471 | -0.54336 | 35967 ft | 473 kts | 18° |
| 2026-05-08 23:14 | 45.04665 | -0.51165 | 35971 ft | 473 kts | 18° |
| 2026-05-08 23:15 | 45.10871 | -0.47980 | 35974 ft | 474 kts | 18° |
| 2026-05-08 23:15 | 45.17040 | -0.44808 | 35976 ft | 474 kts | 18° |
| 2026-05-08 23:16 | 45.23249 | -0.41608 | 35975 ft | 475 kts | 18° |
| 2026-05-08 23:16 | 45.29459 | -0.38399 | 35981 ft | 475 kts | 18° |
| 2026-05-08 23:17 | 45.35633 | -0.35201 | 35974 ft | 475 kts | 18° |
| 2026-05-08 23:17 | 45.41859 | -0.31970 | 35976 ft | 475 kts | 18° |
| 2026-05-08 23:18 | 45.48068 | -0.28739 | 35975 ft | 475 kts | 18° |
| 2026-05-08 23:18 | 45.54261 | -0.25509 | 35977 ft | 476 kts | 18° |
| 2026-05-08 23:19 | 45.60490 | -0.22253 | 35980 ft | 476 kts | 18° |
| 2026-05-08 23:19 | 45.66681 | -0.19009 | 35975 ft | 476 kts | 18° |
| 2026-05-08 23:20 | 45.72901 | -0.15742 | 35969 ft | 476 kts | 19° |
| 2026-05-08 23:20 | 45.79110 | -0.12473 | 35971 ft | 476 kts | 19° |
| 2026-05-08 23:21 | 45.85344 | -0.09183 | 35970 ft | 476 kts | 19° |
| 2026-05-08 23:21 | 45.91560 | -0.05894 | 35972 ft | 476 kts | 19° |
| 2026-05-08 23:22 | 45.97784 | -0.02594 | 35977 ft | 476 kts | 19° |
| 2026-05-08 23:22 | 46.03962 | 0.00690 | 35983 ft | 476 kts | 19° |
| 2026-05-08 23:23 | 46.10199 | 0.04013 | 35984 ft | 476 kts | 19° |
| 2026-05-08 23:23 | 46.16414 | 0.07332 | 35984 ft | 476 kts | 19° |
| 2026-05-08 23:24 | 46.22623 | 0.10657 | 35987 ft | 476 kts | 19° |
| 2026-05-08 23:24 | 46.28800 | 0.13972 | 35986 ft | 476 kts | 20° |
| 2026-05-08 23:25 | 46.35016 | 0.17316 | 35986 ft | 475 kts | 20° |
| 2026-05-08 23:25 | 46.41210 | 0.20657 | 35993 ft | 475 kts | 20° |
| 2026-05-08 23:26 | 46.47382 | 0.23993 | 35992 ft | 475 kts | 20° |
| 2026-05-08 23:26 | 46.53583 | 0.27353 | 35993 ft | 475 kts | 20° |
| 2026-05-08 23:27 | 46.59878 | 0.30261 | 35997 ft | 474 kts | 13° |
| 2026-05-08 23:27 | 46.66322 | 0.32372 | 35993 ft | 474 kts | 11° |
| 2026-05-08 23:28 | 46.72742 | 0.34333 | 35991 ft | 474 kts | 11° |
| 2026-05-08 23:28 | 46.79206 | 0.36295 | 35996 ft | 474 kts | 11° |
| 2026-05-08 23:29 | 46.85668 | 0.38275 | 35998 ft | 473 kts | 11° |
| 2026-05-08 23:29 | 46.92121 | 0.40268 | 35998 ft | 473 kts | 11° |
| 2026-05-08 23:30 | 46.98532 | 0.42253 | 35839 ft | 474 kts | 13° |
| 2026-05-08 23:30 | 47.01752 | 0.43252 | 35982 ft | 475 kts | 13° |
| 2026-05-08 23:30 | 47.04998 | 0.44228 | 35677 ft | 474 kts | 11° |
| 2026-05-08 23:31 | 47.08303 | 0.44668 | 34931 ft | 478 kts | 1° |
| 2026-05-08 23:31 | 47.11625 | 0.44328 | 34229 ft | 480 kts | 355° |
| 2026-05-08 23:31 | 47.14957 | 0.43686 | 33434 ft | 481 kts | 353° |
| 2026-05-08 23:31 | 47.18230 | 0.42934 | 32610 ft | 483 kts | 352° |
| 2026-05-08 23:32 | 47.21546 | 0.42109 | 31769 ft | 484 kts | 352° |
| 2026-05-08 23:32 | 47.24876 | 0.41260 | 30926 ft | 485 kts | 352° |
| 2026-05-08 23:32 | 47.28198 | 0.40413 | 30093 ft | 486 kts | 352° |
| 2026-05-08 23:32 | 47.31545 | 0.39570 | 29079 ft | 488 kts | 352° |
| 2026-05-08 23:33 | 47.34904 | 0.38734 | 28034 ft | 490 kts | 352° |
| 2026-05-08 23:33 | 47.38272 | 0.37904 | 26983 ft | 491 kts | 352° |
| 2026-05-08 23:33 | 47.41616 | 0.37082 | 25930 ft | 493 kts | 352° |
| 2026-05-08 23:33 | 47.45009 | 0.36249 | 24985 ft | 493 kts | 352° |
| 2026-05-08 23:34 | 47.48384 | 0.35419 | 24370 ft | 490 kts | 352° |
| 2026-05-08 23:34 | 47.51731 | 0.34590 | 24089 ft | 488 kts | 352° |
| 2026-05-08 23:34 | 47.55080 | 0.33760 | 24019 ft | 487 kts | 352° |
| 2026-05-08 23:34 | 47.58429 | 0.32928 | 24019 ft | 486 kts | 352° |
| 2026-05-08 23:35 | 47.61755 | 0.32140 | 24017 ft | 485 kts | 354° |
| 2026-05-08 23:35 | 47.65106 | 0.31914 | 23807 ft | 476 kts | 3° |
| 2026-05-08 23:35 | 47.68371 | 0.32563 | 22845 ft | 471 kts | 15° |
| 2026-05-08 23:35 | 47.71375 | 0.34274 | 21854 ft | 466 kts | 30° |
| 2026-05-08 23:36 | 47.74046 | 0.37022 | 21010 ft | 457 kts | 41° |
| 2026-05-08 23:36 | 47.76388 | 0.40071 | 20166 ft | 453 kts | 43° |
| 2026-05-08 23:36 | 47.78722 | 0.43214 | 19362 ft | 449 kts | 43° |
| 2026-05-08 23:36 | 47.80999 | 0.46281 | 19033 ft | 434 kts | 43° |
| 2026-05-08 23:37 | 47.83223 | 0.49270 | 18289 ft | 431 kts | 43° |
| 2026-05-08 23:37 | 47.85456 | 0.52269 | 17425 ft | 430 kts | 43° |
| 2026-05-08 23:37 | 47.87660 | 0.55227 | 16689 ft | 426 kts | 43° |
| 2026-05-08 23:37 | 47.89850 | 0.58166 | 15986 ft | 421 kts | 42° |
| 2026-05-08 23:38 | 47.92020 | 0.61082 | 15307 ft | 417 kts | 42° |
| 2026-05-08 23:38 | 47.94162 | 0.63962 | 14671 ft | 413 kts | 42° |
| 2026-05-08 23:38 | 47.96259 | 0.66784 | 14038 ft | 409 kts | 42° |
| 2026-05-08 23:38 | 47.98380 | 0.69642 | 13357 ft | 404 kts | 42° |
| 2026-05-08 23:39 | 48.00431 | 0.72409 | 12675 ft | 399 kts | 42° |
| 2026-05-08 23:39 | 48.02481 | 0.75177 | 12064 ft | 394 kts | 42° |
| 2026-05-08 23:39 | 48.04501 | 0.77908 | 11771 ft | 392 kts | 42° |
| 2026-05-08 23:39 | 48.06537 | 0.80663 | 11528 ft | 392 kts | 42° |
| 2026-05-08 23:40 | 48.08552 | 0.83393 | 11267 ft | 391 kts | 42° |
| 2026-05-08 23:40 | 48.10566 | 0.86124 | 11019 ft | 389 kts | 42° |
| 2026-05-08 23:40 | 48.12566 | 0.88841 | 10782 ft | 387 kts | 42° |
| 2026-05-08 23:40 | 48.14538 | 0.91520 | 10545 ft | 383 kts | 42° |
| 2026-05-08 23:41 | 48.16514 | 0.94210 | 10291 ft | 380 kts | 42° |
| 2026-05-08 23:41 | 48.18461 | 0.96863 | 10088 ft | 378 kts | 42° |
| 2026-05-08 23:41 | 48.20406 | 0.99514 | 10053 ft | 377 kts | 42° |
| 2026-05-08 23:41 | 48.22316 | 1.02122 | 10053 ft | 377 kts | 42° |
| 2026-05-08 23:42 | 48.24289 | 1.04818 | 10056 ft | 377 kts | 42° |
| 2026-05-08 23:42 | 48.26222 | 1.07463 | 10053 ft | 377 kts | 41° |
| 2026-05-08 23:42 | 48.28130 | 1.10075 | 10057 ft | 377 kts | 42° |
| 2026-05-08 23:42 | 48.30064 | 1.12726 | 10056 ft | 377 kts | 41° |
| 2026-05-08 23:43 | 48.32001 | 1.15385 | 10057 ft | 377 kts | 41° |
| 2026-05-08 23:43 | 48.33940 | 1.18048 | 10057 ft | 377 kts | 41° |
| 2026-05-08 23:43 | 48.35877 | 1.20712 | 10056 ft | 377 kts | 41° |
| 2026-05-08 23:43 | 48.37813 | 1.23377 | 10064 ft | 378 kts | 41° |
| 2026-05-08 23:44 | 48.39753 | 1.26052 | 10059 ft | 378 kts | 41° |
| 2026-05-08 23:44 | 48.41691 | 1.28725 | 10063 ft | 378 kts | 41° |
| 2026-05-08 23:44 | 48.43630 | 1.31404 | 10061 ft | 378 kts | 41° |
| 2026-05-08 23:44 | 48.45573 | 1.34091 | 10069 ft | 378 kts | 41° |
| 2026-05-08 23:45 | 48.47485 | 1.36737 | 10063 ft | 378 kts | 41° |
| 2026-05-08 23:45 | 48.49415 | 1.39413 | 10066 ft | 378 kts | 41° |
| 2026-05-08 23:45 | 48.51356 | 1.42105 | 10067 ft | 378 kts | 41° |
| 2026-05-08 23:45 | 48.53296 | 1.44800 | 10069 ft | 378 kts | 41° |
| 2026-05-08 23:46 | 48.54578 | 1.46581 | 10067 ft | 378 kts | 41° |
| 2026-05-08 23:46 | 48.57204 | 1.50140 | 10053 ft | 378 kts | 36° |
| 2026-05-08 23:46 | 48.58674 | 1.51512 | 10067 ft | 369 kts | 27° |
| 2026-05-08 23:46 | 48.60921 | 1.53212 | 9886 ft | 353 kts | 24° |
| 2026-05-08 23:47 | 48.63795 | 1.55297 | 9481 ft | 338 kts | 24° |
| 2026-05-08 23:47 | 48.65212 | 1.56329 | 9283 ft | 331 kts | 24° |
| 2026-05-08 23:47 | 48.67260 | 1.57828 | 8983 ft | 322 kts | 25° |
| 2026-05-08 23:47 | 48.69254 | 1.59294 | 8693 ft | 314 kts | 25° |
| 2026-05-08 23:48 | 48.71172 | 1.60710 | 8404 ft | 306 kts | 25° |
| 2026-05-08 23:48 | 48.73064 | 1.62110 | 8130 ft | 299 kts | 26° |
| 2026-05-08 23:48 | 48.74763 | 1.63777 | 8066 ft | 286 kts | 43° |
| 2026-05-08 23:48 | 48.76013 | 1.66077 | 8070 ft | 281 kts | 55° |
| 2026-05-08 23:49 | 48.77046 | 1.68594 | 8074 ft | 282 kts | 60° |
| 2026-05-08 23:49 | 48.77974 | 1.71232 | 8078 ft | 283 kts | 63° |
| 2026-05-08 23:49 | 48.78850 | 1.73880 | 8077 ft | 283 kts | 63° |
| 2026-05-08 23:49 | 48.79737 | 1.76572 | 8071 ft | 283 kts | 63° |
| 2026-05-08 23:50 | 48.80623 | 1.79213 | 7995 ft | 282 kts | 63° |
| 2026-05-08 23:50 | 48.81528 | 1.81852 | 7575 ft | 282 kts | 62° |
| 2026-05-08 23:50 | 48.82446 | 1.84475 | 7106 ft | 279 kts | 62° |
| 2026-05-08 23:50 | 48.83348 | 1.87027 | 6625 ft | 269 kts | 62° |
| 2026-05-08 23:51 | 48.84223 | 1.89486 | 6148 ft | 260 kts | 62° |
| 2026-05-08 23:51 | 48.85061 | 1.91838 | 5846 ft | 247 kts | 62° |
| 2026-05-08 23:51 | 48.85875 | 1.94123 | 5600 ft | 243 kts | 62° |
| 2026-05-08 23:52 | 48.86381 | 1.95590 | 5429 ft | 241 kts | 66° |
| 2026-05-08 23:52 | 48.87253 | 1.97732 | 5183 ft | 237 kts | 53° |
| 2026-05-08 23:52 | 48.88242 | 1.99615 | 5008 ft | 230 kts | 52° |
| 2026-05-08 23:53 | 48.89241 | 2.01438 | 4994 ft | 216 kts | 50° |
| 2026-05-08 23:53 | 48.90199 | 2.03081 | 5012 ft | 199 kts | 48° |
| 2026-05-08 23:53 | 48.91139 | 2.04580 | 4998 ft | 194 kts | 47° |
| 2026-05-08 23:53 | 48.92085 | 2.06039 | 5004 ft | 193 kts | 46° |
| 2026-05-08 23:54 | 48.93027 | 2.07502 | 5004 ft | 193 kts | 47° |
| 2026-05-08 23:54 | 48.93941 | 2.08922 | 4994 ft | 185 kts | 47° |
| 2026-05-08 23:54 | 48.94826 | 2.10311 | 5009 ft | 181 kts | 47° |
| 2026-05-08 23:55 | 48.96447 | 2.13220 | 4992 ft | 175 kts | 60° |
| 2026-05-08 23:55 | 48.96923 | 2.14874 | 4995 ft | 170 kts | 75° |
| 2026-05-08 23:55 | 48.97149 | 2.16636 | 4999 ft | 169 kts | 84° |
| 2026-05-08 23:55 | 48.97261 | 2.18412 | 5002 ft | 169 kts | 86° |
| 2026-05-08 23:56 | 48.97350 | 2.20167 | 5001 ft | 169 kts | 86° |
| 2026-05-08 23:56 | 48.97456 | 2.21983 | 4905 ft | 169 kts | 85° |
| 2026-05-08 23:56 | 48.97556 | 2.23669 | 4715 ft | 165 kts | 86° |
| 2026-05-08 23:56 | 48.97648 | 2.25452 | 4440 ft | 165 kts | 86° |
| 2026-05-08 23:57 | 48.97739 | 2.27192 | 4168 ft | 165 kts | 86° |
| 2026-05-08 23:57 | 48.97832 | 2.28933 | 3923 ft | 164 kts | 86° |
| 2026-05-08 23:57 | 48.97923 | 2.30663 | 3688 ft | 163 kts | 86° |
| 2026-05-08 23:57 | 48.98014 | 2.32384 | 3480 ft | 162 kts | 86° |
| 2026-05-08 23:58 | 48.98105 | 2.34092 | 3266 ft | 161 kts | 86° |
| 2026-05-08 23:58 | 48.98193 | 2.35764 | 3052 ft | 160 kts | 86° |
| 2026-05-08 23:58 | 48.98282 | 2.37442 | 2835 ft | 159 kts | 86° |
| 2026-05-08 23:58 | 48.98365 | 2.39020 | 2639 ft | 158 kts | 86° |
| 2026-05-08 23:59 | 48.98456 | 2.40729 | 2422 ft | 157 kts | 85° |
| 2026-05-08 23:59 | 48.98543 | 2.42370 | 2200 ft | 150 kts | 85° |
| 2026-05-08 23:59 | 48.98630 | 2.43895 | 1998 ft | 139 kts | 73° |
| 2026-05-08 23:59 | 48.98741 | 2.45351 | 1757 ft | 138 kts | 82° |
| 2026-05-09 00:00 | 48.98805 | 2.46778 | 1564 ft | 137 kts | 84° |
| 2026-05-09 00:00 | 48.98886 | 2.48235 | 1477 ft | 139 kts | 81° |
| 2026-05-09 00:00 | 48.98936 | 2.49716 | 1226 ft | 139 kts | 84° |
| 2026-05-09 00:00 | 48.99022 | 2.51187 | 1075 ft | 141 kts | 81° |
| 2026-05-09 00:01 | 48.99092 | 2.52690 | 859 ft | 147 kts | 83° |
| 2026-05-09 00:01 | 48.99170 | 2.54309 | 691 ft | 155 kts | 82° |
| 2026-05-09 00:01 | 48.99255 | 2.55947 | 484 ft | 155 kts | 84° |
| 2026-05-09 00:01 | 48.99349 | 2.57550 | 358 ft | 142 kts | 85° |
| 2026-05-09 00:02 | 48.99414 | 2.58811 | 365 ft | 95 kts | 84° |
| 2026-05-09 00:02 | 48.99447 | 2.59559 | 361 ft | 51 kts | 81° |
| 2026-05-09 00:02 | 48.99502 | 2.59877 | 367 ft | 17 kts | 54° |
| 2026-05-09 00:02 | 48.99585 | 2.59964 | 359 ft | 12 kts | 9° |
| 2026-05-09 00:03 | 48.99671 | 2.59967 | 361 ft | 13 kts | 355° |
| 2026-05-09 00:03 | 48.99768 | 2.59962 | 366 ft | 15 kts | 359° |
| 2026-05-09 00:03 | 48.99869 | 2.59974 | 365 ft | 15 kts | 32° |
| 2026-05-09 00:03 | 48.99961 | 2.60060 | 366 ft | 17 kts | 6° |
| 2026-05-09 00:04 | 49.00010 | 2.59994 | 365 ft | 7 kts | 271° |
| 2026-05-09 00:04 | 49.00005 | 2.59898 | 360 ft | 15 kts | 265° |
| 2026-05-09 00:04 | 48.99994 | 2.59653 | 363 ft | 30 kts | 266° |
| 2026-05-09 00:04 | 48.99977 | 2.59275 | 364 ft | 40 kts | 263° |
| 2026-05-09 00:05 | 48.99944 | 2.58821 | 366 ft | 45 kts | 266° |
| 2026-05-09 00:05 | 48.99924 | 2.58332 | 362 ft | 47 kts | 265° |
| 2026-05-09 00:05 | 48.99896 | 2.57824 | 360 ft | 50 kts | 264° |
| 2026-05-09 00:05 | 48.99867 | 2.57304 | 363 ft | 49 kts | 265° |
| 2026-05-09 00:06 | 48.99843 | 2.56771 | 362 ft | 51 kts | 265° |
| 2026-05-09 00:06 | 48.99805 | 2.56279 | 362 ft | 48 kts | 267° |
| 2026-05-09 00:06 | 48.99829 | 2.55764 | 364 ft | 50 kts | 287° |
| 2026-05-09 00:06 | 48.99990 | 2.55454 | 363 ft | 25 kts | 289° |
| 2026-05-09 00:07 | 48.99968 | 2.55222 | 360 ft | 24 kts | 262° |
| 2026-05-09 00:07 | 48.99954 | 2.54975 | 362 ft | 20 kts | 278° |
| 2026-05-09 00:07 | 48.99944 | 2.54752 | 366 ft | 25 kts | 266° |
| 2026-05-09 00:07 | 48.99928 | 2.54458 | 365 ft | 31 kts | 263° |
| 2026-05-09 00:08 | 48.99914 | 2.54219 | 365 ft | 11 kts | 266° |
| 2026-05-09 00:08 | 48.99918 | 2.54179 | 365 ft | 1 kts | 303° |
| 2026-05-09 00:08 | 48.99930 | 2.54180 | 362 ft | 2 kts | 7° |
| 2026-05-09 00:08 | 48.99960 | 2.54191 | 366 ft | 4 kts | 13° |
| 2026-05-09 00:09 | 48.99995 | 2.54197 | 361 ft | 3 kts | 0° |
| 2026-05-09 00:09 | 49.00004 | 2.54196 | 362 ft | 0 kts | 357° |